AU-0037 weather

New Norcia North
Western Australia, Australia

Public forecast

Using degrees Celsius for public forecast. Weather courtesy of forecast.io.

METAR (pilot weather report)

Closest report is RAAF Base Pearce, 46.3 nm (85.7 km) SSW. Retrieved 2019/04/19 08:00 UTC (14 minutes ago):

YPEA 190800Z AUTO 22014KT 9999 // SCT056 SCT072 BKN083 15/04 Q1018

TAF (pilot weather forecast)

Closest forecast is RAAF Base Pearce, 46.3 nm (85.7 km) SSW. Retrieved 2019/04/19 06:33 UTC (2 hours ago):

TAF YPEA 190502Z 1906/1924 23014KT 9999 -SHRA BKN035 FM191600 17007KT 9999 BKN035 INTER 1906/1916 23025G40KT 3000 SHRAGS BKN015